sensor_id;sensor_type;location;lat;lon;timestamp;temperature;humidity
27266;DHT22;14766;51.380;13.762;2023-05-17T00:02:21;13.30;49.80
27266;DHT22;14766;51.380;13.762;2023-05-17T00:04:48;13.20;49.90
27266;DHT22;14766;51.380;13.762;2023-05-17T00:07:15;13.20;49.90
27266;DHT22;14766;51.380;13.762;2023-05-17T00:09:42;13.10;50.00
27266;DHT22;14766;51.380;13.762;2023-05-17T00:12:09;13.10;50.10
27266;DHT22;14766;51.380;13.762;2023-05-17T00:14:36;13.10;50.20
27266;DHT22;14766;51.380;13.762;2023-05-17T00:17:03;13.00;50.30
27266;DHT22;14766;51.380;13.762;2023-05-17T00:19:30;13.00;50.20
27266;DHT22;14766;51.380;13.762;2023-05-17T00:21:58;12.90;50.30
27266;DHT22;14766;51.380;13.762;2023-05-17T00:24:25;12.90;50.50
27266;DHT22;14766;51.380;13.762;2023-05-17T00:26:53;12.90;50.40
27266;DHT22;14766;51.380;13.762;2023-05-17T00:29:20;12.90;50.60
27266;DHT22;14766;51.380;13.762;2023-05-17T00:31:47;12.80;50.50
27266;DHT22;14766;51.380;13.762;2023-05-17T00:34:14;12.80;50.50
27266;DHT22;14766;51.380;13.762;2023-05-17T00:36:41;12.80;50.60
27266;DHT22;14766;51.380;13.762;2023-05-17T00:39:08;12.70;50.60
27266;DHT22;14766;51.380;13.762;2023-05-17T00:41:36;12.70;50.70
27266;DHT22;14766;51.380;13.762;2023-05-17T00:44:03;12.70;50.80
27266;DHT22;14766;51.380;13.762;2023-05-17T00:46:31;12.70;50.80
27266;DHT22;14766;51.380;13.762;2023-05-17T00:48:59;12.70;50.80
27266;DHT22;14766;51.380;13.762;2023-05-17T00:51:27;12.60;50.80
27266;DHT22;14766;51.380;13.762;2023-05-17T00:53:54;12.60;50.90
27266;DHT22;14766;51.380;13.762;2023-05-17T00:56:22;12.60;50.90
27266;DHT22;14766;51.380;13.762;2023-05-17T00:58:52;12.60;51.10
27266;DHT22;14766;51.380;13.762;2023-05-17T01:01:19;12.50;51.10
27266;DHT22;14766;51.380;13.762;2023-05-17T01:03:47;12.50;51.00
27266;DHT22;14766;51.380;13.762;2023-05-17T01:06:15;12.50;51.00
27266;DHT22;14766;51.380;13.762;2023-05-17T01:08:42;12.50;51.00
27266;DHT22;14766;51.380;13.762;2023-05-17T01:17:16;12.50;50.90
27266;DHT22;14766;51.380;13.762;2023-05-17T01:20:01;12.50;50.80
27266;DHT22;14766;51.380;13.762;2023-05-17T01:28:03;12.50;50.70
27266;DHT22;14766;51.380;13.762;2023-05-17T01:30:31;12.40;50.80
27266;DHT22;14766;51.380;13.762;2023-05-17T01:32:59;12.50;50.90
27266;DHT22;14766;51.380;13.762;2023-05-17T01:35:28;12.50;50.90
27266;DHT22;14766;51.380;13.762;2023-05-17T01:37:57;12.40;50.90
27266;DHT22;14766;51.380;13.762;2023-05-17T01:40:24;12.50;51.00
27266;DHT22;14766;51.380;13.762;2023-05-17T01:42:56;12.50;50.90
27266;DHT22;14766;51.380;13.762;2023-05-17T01:45:39;12.50;50.80
27266;DHT22;14766;51.380;13.762;2023-05-17T01:50:37;12.50;50.90
27266;DHT22;14766;51.380;13.762;2023-05-17T01:53:10;12.60;51.60
27266;DHT22;14766;51.380;13.762;2023-05-17T01:55:48;12.50;50.80
27266;DHT22;14766;51.380;13.762;2023-05-17T01:58:17;12.60;50.90
27266;DHT22;14766;51.380;13.762;2023-05-17T02:00:48;12.60;50.90
27266;DHT22;14766;51.380;13.762;2023-05-17T02:03:20;12.60;50.90
27266;DHT22;14766;51.380;13.762;2023-05-17T02:05:51;12.60;50.90
27266;DHT22;14766;51.380;13.762;2023-05-17T02:08:18;12.60;50.90
27266;DHT22;14766;51.380;13.762;2023-05-17T02:10:45;12.60;50.80
27266;DHT22;14766;51.380;13.762;2023-05-17T02:13:13;12.60;50.90
27266;DHT22;14766;51.380;13.762;2023-05-17T02:15:40;12.60;50.90
27266;DHT22;14766;51.380;13.762;2023-05-17T02:18:07;12.60;51.00
27266;DHT22;14766;51.380;13.762;2023-05-17T02:20:35;12.60;51.00
27266;DHT22;14766;51.380;13.762;2023-05-17T02:23:02;12.60;51.00
27266;DHT22;14766;51.380;13.762;2023-05-17T02:25:29;12.60;51.00
27266;DHT22;14766;51.380;13.762;2023-05-17T02:27:58;12.60;51.00
27266;DHT22;14766;51.380;13.762;2023-05-17T02:30:25;12.50;51.00
27266;DHT22;14766;51.380;13.762;2023-05-17T02:32:52;12.50;51.00
27266;DHT22;14766;51.380;13.762;2023-05-17T02:35:19;12.50;51.10
27266;DHT22;14766;51.380;13.762;2023-05-17T02:37:49;12.50;51.10
27266;DHT22;14766;51.380;13.762;2023-05-17T02:40:18;12.50;51.20
27266;DHT22;14766;51.380;13.762;2023-05-17T02:42:45;12.50;51.30
27266;DHT22;14766;51.380;13.762;2023-05-17T02:45:12;12.50;51.40
27266;DHT22;14766;51.380;13.762;2023-05-17T02:47:39;12.50;51.50
27266;DHT22;14766;51.380;13.762;2023-05-17T02:50:07;12.50;51.50
27266;DHT22;14766;51.380;13.762;2023-05-17T02:52:35;12.40;51.60
27266;DHT22;14766;51.380;13.762;2023-05-17T02:55:03;12.40;51.60
27266;DHT22;14766;51.380;13.762;2023-05-17T02:57:30;12.40;51.90
27266;DHT22;14766;51.380;13.762;2023-05-17T02:59:57;12.40;51.80
27266;DHT22;14766;51.380;13.762;2023-05-17T03:02:26;12.40;51.90
27266;DHT22;14766;51.380;13.762;2023-05-17T03:04:54;12.40;51.90
27266;DHT22;14766;51.380;13.762;2023-05-17T03:07:22;12.40;52.00
27266;DHT22;14766;51.380;13.762;2023-05-17T03:09:50;12.40;52.00
27266;DHT22;14766;51.380;13.762;2023-05-17T03:12:17;12.40;52.00
27266;DHT22;14766;51.380;13.762;2023-05-17T03:14:46;12.40;52.00
27266;DHT22;14766;51.380;13.762;2023-05-17T03:17:13;12.40;52.10
27266;DHT22;14766;51.380;13.762;2023-05-17T03:19:41;12.40;52.10
27266;DHT22;14766;51.380;13.762;2023-05-17T03:22:08;12.30;52.20
27266;DHT22;14766;51.380;13.762;2023-05-17T03:24:35;12.30;52.10
27266;DHT22;14766;51.380;13.762;2023-05-17T03:27:03;12.30;52.10
27266;DHT22;14766;51.380;13.762;2023-05-17T03:29:31;12.30;52.20
27266;DHT22;14766;51.380;13.762;2023-05-17T03:31:58;12.30;52.20
27266;DHT22;14766;51.380;13.762;2023-05-17T03:34:26;12.30;52.20
27266;DHT22;14766;51.380;13.762;2023-05-17T03:36:53;12.30;52.40
27266;DHT22;14766;51.380;13.762;2023-05-17T03:39:20;12.30;52.50
27266;DHT22;14766;51.380;13.762;2023-05-17T03:41:47;12.30;52.50
27266;DHT22;14766;51.380;13.762;2023-05-17T03:44:15;12.30;52.60
27266;DHT22;14766;51.380;13.762;2023-05-17T03:46:42;12.20;52.60
27266;DHT22;14766;51.380;13.762;2023-05-17T03:49:10;12.20;52.70
27266;DHT22;14766;51.380;13.762;2023-05-17T03:51:38;12.20;52.70
27266;DHT22;14766;51.380;13.762;2023-05-17T03:54:05;12.20;52.80
27266;DHT22;14766;51.380;13.762;2023-05-17T03:56:32;12.20;52.70
27266;DHT22;14766;51.380;13.762;2023-05-17T03:59:00;12.20;52.90
27266;DHT22;14766;51.380;13.762;2023-05-17T04:01:28;12.20;53.00
27266;DHT22;14766;51.380;13.762;2023-05-17T04:03:57;12.20;53.10
27266;DHT22;14766;51.380;13.762;2023-05-17T04:06:24;12.20;53.20
27266;DHT22;14766;51.380;13.762;2023-05-17T04:08:52;12.20;53.30
27266;DHT22;14766;51.380;13.762;2023-05-17T04:11:21;12.20;53.30
27266;DHT22;14766;51.380;13.762;2023-05-17T04:13:50;12.20;53.30
27266;DHT22;14766;51.380;13.762;2023-05-17T04:16:17;12.20;53.40
27266;DHT22;14766;51.380;13.762;2023-05-17T04:18:46;12.20;53.50
27266;DHT22;14766;51.380;13.762;2023-05-17T04:21:13;12.30;53.60
27266;DHT22;14766;51.380;13.762;2023-05-17T04:23:41;12.20;53.60
27266;DHT22;14766;51.380;13.762;2023-05-17T04:26:08;12.30;53.70
27266;DHT22;14766;51.380;13.762;2023-05-17T04:28:38;12.30;53.80
27266;DHT22;14766;51.380;13.762;2023-05-17T04:31:09;12.30;53.80
27266;DHT22;14766;51.380;13.762;2023-05-17T04:33:37;12.30;53.90
27266;DHT22;14766;51.380;13.762;2023-05-17T04:36:06;12.40;54.10
27266;DHT22;14766;51.380;13.762;2023-05-17T04:38:34;12.40;54.10
27266;DHT22;14766;51.380;13.762;2023-05-17T04:41:02;12.40;54.20
27266;DHT22;14766;51.380;13.762;2023-05-17T04:43:32;12.50;54.40
27266;DHT22;14766;51.380;13.762;2023-05-17T04:46:03;12.50;54.40
27266;DHT22;14766;51.380;13.762;2023-05-17T04:48:32;12.50;54.40
27266;DHT22;14766;51.380;13.762;2023-05-17T04:51:03;12.50;54.40
27266;DHT22;14766;51.380;13.762;2023-05-17T04:53:31;12.60;54.40
27266;DHT22;14766;51.380;13.762;2023-05-17T04:56:04;12.60;54.50
27266;DHT22;14766;51.380;13.762;2023-05-17T04:58:32;12.60;54.50
27266;DHT22;14766;51.380;13.762;2023-05-17T05:01:04;12.70;54.70
27266;DHT22;14766;51.380;13.762;2023-05-17T05:03:32;12.70;54.70
27266;DHT22;14766;51.380;13.762;2023-05-17T05:05:59;12.70;54.80
27266;DHT22;14766;51.380;13.762;2023-05-17T05:08:27;12.80;54.90
27266;DHT22;14766;51.380;13.762;2023-05-17T05:10:55;12.80;54.90
27266;DHT22;14766;51.380;13.762;2023-05-17T05:13:24;12.90;54.90
27266;DHT22;14766;51.380;13.762;2023-05-17T05:15:53;12.90;54.90
27266;DHT22;14766;51.380;13.762;2023-05-17T05:18:20;12.90;55.00
27266;DHT22;14766;51.380;13.762;2023-05-17T05:20:48;13.00;55.00
27266;DHT22;14766;51.380;13.762;2023-05-17T05:23:16;13.00;55.10
27266;DHT22;14766;51.380;13.762;2023-05-17T05:25:47;13.00;55.20
27266;DHT22;14766;51.380;13.762;2023-05-17T05:28:14;13.10;55.30
27266;DHT22;14766;51.380;13.762;2023-05-17T05:30:43;13.20;55.40
27266;DHT22;14766;51.380;13.762;2023-05-17T05:33:12;13.20;55.10
27266;DHT22;14766;51.380;13.762;2023-05-17T05:35:39;13.30;55.10
27266;DHT22;14766;51.380;13.762;2023-05-17T05:38:06;13.30;55.10
27266;DHT22;14766;51.380;13.762;2023-05-17T05:40:35;13.30;55.10
27266;DHT22;14766;51.380;13.762;2023-05-17T05:43:03;13.40;55.00
27266;DHT22;14766;51.380;13.762;2023-05-17T05:45:31;13.40;55.20
27266;DHT22;14766;51.380;13.762;2023-05-17T05:48:01;13.40;55.10
27266;DHT22;14766;51.380;13.762;2023-05-17T05:50:33;13.40;55.10
27266;DHT22;14766;51.380;13.762;2023-05-17T05:53:06;13.50;55.10
27266;DHT22;14766;51.380;13.762;2023-05-17T05:55:49;13.50;55.20
27266;DHT22;14766;51.380;13.762;2023-05-17T05:58:19;13.60;55.30
27266;DHT22;14766;51.380;13.762;2023-05-17T06:00:47;13.60;55.30
27266;DHT22;14766;51.380;13.762;2023-05-17T06:03:14;13.70;55.30
27266;DHT22;14766;51.380;13.762;2023-05-17T06:05:41;13.70;55.30
27266;DHT22;14766;51.380;13.762;2023-05-17T06:08:09;13.70;55.30
27266;DHT22;14766;51.380;13.762;2023-05-17T06:10:36;13.80;55.60
27266;DHT22;14766;51.380;13.762;2023-05-17T06:13:03;13.90;55.70
27266;DHT22;14766;51.380;13.762;2023-05-17T06:15:31;14.00;55.80
27266;DHT22;14766;51.380;13.762;2023-05-17T06:17:59;14.10;55.90
27266;DHT22;14766;51.380;13.762;2023-05-17T06:20:26;14.10;55.90
27266;DHT22;14766;51.380;13.762;2023-05-17T06:22:53;14.20;56.10
27266;DHT22;14766;51.380;13.762;2023-05-17T06:25:20;14.30;56.20
27266;DHT22;14766;51.380;13.762;2023-05-17T06:27:49;14.40;56.10
27266;DHT22;14766;51.380;13.762;2023-05-17T06:30:16;14.50;55.80
27266;DHT22;14766;51.380;13.762;2023-05-17T06:32:43;14.60;55.80
27266;DHT22;14766;51.380;13.762;2023-05-17T06:35:11;14.70;55.80
27266;DHT22;14766;51.380;13.762;2023-05-17T06:37:39;14.80;55.60
27266;DHT22;14766;51.380;13.762;2023-05-17T06:40:07;14.90;55.50
27266;DHT22;14766;51.380;13.762;2023-05-17T06:42:42;15.00;55.50
27266;DHT22;14766;51.380;13.762;2023-05-17T06:45:11;15.10;55.20
27266;DHT22;14766;51.380;13.762;2023-05-17T06:47:38;15.20;55.30
27266;DHT22;14766;51.380;13.762;2023-05-17T06:50:06;15.30;55.30
27266;DHT22;14766;51.380;13.762;2023-05-17T06:52:35;15.50;55.20
27266;DHT22;14766;51.380;13.762;2023-05-17T06:55:02;15.60;55.20
27266;DHT22;14766;51.380;13.762;2023-05-17T06:57:30;15.70;54.80
27266;DHT22;14766;51.380;13.762;2023-05-17T06:59:58;15.90;54.40
27266;DHT22;14766;51.380;13.762;2023-05-17T07:02:25;16.10;54.50
27266;DHT22;14766;51.380;13.762;2023-05-17T07:04:52;16.30;53.80
27266;DHT22;14766;51.380;13.762;2023-05-17T07:07:20;16.50;53.70
27266;DHT22;14766;51.380;13.762;2023-05-17T07:09:48;16.70;53.60
27266;DHT22;14766;51.380;13.762;2023-05-17T07:12:15;16.90;53.60
27266;DHT22;14766;51.380;13.762;2023-05-17T07:14:42;17.20;52.40
27266;DHT22;14766;51.380;13.762;2023-05-17T07:17:10;17.40;51.30
27266;DHT22;14766;51.380;13.762;2023-05-17T07:19:37;17.60;48.10
27266;DHT22;14766;51.380;13.762;2023-05-17T07:22:04;17.70;47.80
27266;DHT22;14766;51.380;13.762;2023-05-17T07:24:32;17.80;48.30
27266;DHT22;14766;51.380;13.762;2023-05-17T07:27:01;18.00;47.70
27266;DHT22;14766;51.380;13.762;2023-05-17T07:29:28;18.20;47.30
27266;DHT22;14766;51.380;13.762;2023-05-17T07:31:55;18.50;46.70
27266;DHT22;14766;51.380;13.762;2023-05-17T07:34:22;18.70;45.30
27266;DHT22;14766;51.380;13.762;2023-05-17T07:36:50;18.90;44.20
27266;DHT22;14766;51.380;13.762;2023-05-17T07:39:17;19.10;44.10
27266;DHT22;14766;51.380;13.762;2023-05-17T07:41:44;19.20;43.60
27266;DHT22;14766;51.380;13.762;2023-05-17T07:44:11;19.30;42.60
27266;DHT22;14766;51.380;13.762;2023-05-17T07:46:38;19.50;42.00
27266;DHT22;14766;51.380;13.762;2023-05-17T07:49:05;19.60;41.80
27266;DHT22;14766;51.380;13.762;2023-05-17T07:51:33;19.80;42.50
27266;DHT22;14766;51.380;13.762;2023-05-17T07:54:02;20.00;42.10
27266;DHT22;14766;51.380;13.762;2023-05-17T07:56:30;20.10;41.70
27266;DHT22;14766;51.380;13.762;2023-05-17T07:58:58;20.30;40.90
27266;DHT22;14766;51.380;13.762;2023-05-17T08:01:26;20.40;41.00
27266;DHT22;14766;51.380;13.762;2023-05-17T08:03:53;20.50;40.00
27266;DHT22;14766;51.380;13.762;2023-05-17T08:06:21;20.60;39.80
27266;DHT22;14766;51.380;13.762;2023-05-17T08:08:48;20.70;39.60
27266;DHT22;14766;51.380;13.762;2023-05-17T08:11:17;20.90;39.00
27266;DHT22;14766;51.380;13.762;2023-05-17T08:13:44;20.90;38.50
27266;DHT22;14766;51.380;13.762;2023-05-17T08:16:11;21.00;37.60
27266;DHT22;14766;51.380;13.762;2023-05-17T08:18:41;21.10;37.50
27266;DHT22;14766;51.380;13.762;2023-05-17T08:21:12;21.20;37.50
27266;DHT22;14766;51.380;13.762;2023-05-17T08:23:40;21.20;38.00
27266;DHT22;14766;51.380;13.762;2023-05-17T08:26:07;21.20;37.70
27266;DHT22;14766;51.380;13.762;2023-05-17T08:28:35;21.20;38.20
27266;DHT22;14766;51.380;13.762;2023-05-17T08:31:04;21.20;38.20
27266;DHT22;14766;51.380;13.762;2023-05-17T08:33:35;21.20;38.00
27266;DHT22;14766;51.380;13.762;2023-05-17T08:36:03;21.10;38.00
27266;DHT22;14766;51.380;13.762;2023-05-17T08:38:34;21.10;38.10
27266;DHT22;14766;51.380;13.762;2023-05-17T08:41:01;21.10;38.50
27266;DHT22;14766;51.380;13.762;2023-05-17T08:43:29;21.20;37.70
27266;DHT22;14766;51.380;13.762;2023-05-17T08:45:58;21.20;37.50
27266;DHT22;14766;51.380;13.762;2023-05-17T08:48:25;21.20;37.40
27266;DHT22;14766;51.380;13.762;2023-05-17T08:50:54;21.20;37.50
27266;DHT22;14766;51.380;13.762;2023-05-17T08:53:22;21.10;37.40
27266;DHT22;14766;51.380;13.762;2023-05-17T08:55:50;21.00;38.00
27266;DHT22;14766;51.380;13.762;2023-05-17T08:58:24;20.90;37.80
27266;DHT22;14766;51.380;13.762;2023-05-17T09:00:53;20.90;38.10
27266;DHT22;14766;51.380;13.762;2023-05-17T09:03:22;20.80;38.10
27266;DHT22;14766;51.380;13.762;2023-05-17T09:05:50;20.70;38.00
27266;DHT22;14766;51.380;13.762;2023-05-17T09:08:22;20.60;37.50
27266;DHT22;14766;51.380;13.762;2023-05-17T09:10:49;20.50;37.30
27266;DHT22;14766;51.380;13.762;2023-05-17T09:13:16;20.30;37.30
27266;DHT22;14766;51.380;13.762;2023-05-17T09:15:47;20.20;37.70
27266;DHT22;14766;51.380;13.762;2023-05-17T09:18:16;20.10;38.00
27266;DHT22;14766;51.380;13.762;2023-05-17T09:20:51;19.90;38.40
27266;DHT22;14766;51.380;13.762;2023-05-17T09:23:20;19.80;38.80
27266;DHT22;14766;51.380;13.762;2023-05-17T09:25:48;19.60;39.20
27266;DHT22;14766;51.380;13.762;2023-05-17T09:28:18;19.50;39.00
27266;DHT22;14766;51.380;13.762;2023-05-17T09:30:48;19.40;39.40
27266;DHT22;14766;51.380;13.762;2023-05-17T09:33:19;19.30;39.90
27266;DHT22;14766;51.380;13.762;2023-05-17T09:35:48;19.20;39.60
27266;DHT22;14766;51.380;13.762;2023-05-17T09:38:15;19.20;39.70
27266;DHT22;14766;51.380;13.762;2023-05-17T09:40:44;19.20;40.20
27266;DHT22;14766;51.380;13.762;2023-05-17T09:43:12;19.20;40.10
27266;DHT22;14766;51.380;13.762;2023-05-17T09:45:40;19.30;40.50
27266;DHT22;14766;51.380;13.762;2023-05-17T09:48:16;19.50;39.90
27266;DHT22;14766;51.380;13.762;2023-05-17T09:50:45;19.70;38.90
27266;DHT22;14766;51.380;13.762;2023-05-17T09:53:28;19.80;38.30
27266;DHT22;14766;51.380;13.762;2023-05-17T09:55:57;19.90;38.00
27266;DHT22;14766;51.380;13.762;2023-05-17T09:58:27;19.90;37.70
27266;DHT22;14766;51.380;13.762;2023-05-17T10:01:06;19.90;37.90
27266;DHT22;14766;51.380;13.762;2023-05-17T10:03:37;19.90;38.30
27266;DHT22;14766;51.380;13.762;2023-05-17T10:06:06;20.00;38.40
27266;DHT22;14766;51.380;13.762;2023-05-17T10:08:37;20.10;37.20
27266;DHT22;14766;51.380;13.762;2023-05-17T10:11:08;20.20;36.50
27266;DHT22;14766;51.380;13.762;2023-05-17T10:16:44;20.30;35.70
27266;DHT22;14766;51.380;13.762;2023-05-17T10:19:12;20.30;36.00
27266;DHT22;14766;51.380;13.762;2023-05-17T10:21:40;20.30;36.20
27266;DHT22;14766;51.380;13.762;2023-05-17T10:24:09;20.40;36.70
27266;DHT22;14766;51.380;13.762;2023-05-17T10:26:42;20.50;36.70
27266;DHT22;14766;51.380;13.762;2023-05-17T10:29:09;20.70;35.60
27266;DHT22;14766;51.380;13.762;2023-05-17T10:31:40;20.80;34.10
27266;DHT22;14766;51.380;13.762;2023-05-17T10:34:09;20.90;34.10
27266;DHT22;14766;51.380;13.762;2023-05-17T10:36:39;21.00;33.80
27266;DHT22;14766;51.380;13.762;2023-05-17T10:39:08;21.10;34.10
27266;DHT22;14766;51.380;13.762;2023-05-17T10:41:39;21.10;33.70
27266;DHT22;14766;51.380;13.762;2023-05-17T10:44:11;21.10;33.70
27266;DHT22;14766;51.380;13.762;2023-05-17T10:46:39;21.00;33.70
27266;DHT22;14766;51.380;13.762;2023-05-17T10:49:06;21.00;34.10
27266;DHT22;14766;51.380;13.762;2023-05-17T10:51:36;21.10;33.30
27266;DHT22;14766;51.380;13.762;2023-05-17T10:54:12;21.10;33.70
27266;DHT22;14766;51.380;13.762;2023-05-17T10:56:46;21.20;33.70
27266;DHT22;14766;51.380;13.762;2023-05-17T11:02:01;21.30;33.40
27266;DHT22;14766;51.380;13.762;2023-05-17T11:04:40;21.30;32.70
27266;DHT22;14766;51.380;13.762;2023-05-17T11:12:28;21.50;32.50
27266;DHT22;14766;51.380;13.762;2023-05-17T11:14:59;21.50;32.70
27266;DHT22;14766;51.380;13.762;2023-05-17T11:17:32;21.60;32.00
27266;DHT22;14766;51.380;13.762;2023-05-17T11:20:02;21.60;32.00
27266;DHT22;14766;51.380;13.762;2023-05-17T11:22:38;21.70;32.00
27266;DHT22;14766;51.380;13.762;2023-05-17T11:25:11;21.70;31.90
27266;DHT22;14766;51.380;13.762;2023-05-17T11:30:30;21.70;31.70
27266;DHT22;14766;51.380;13.762;2023-05-17T11:33:03;21.70;31.90
27266;DHT22;14766;51.380;13.762;2023-05-17T11:35:43;21.70;31.90
27266;DHT22;14766;51.380;13.762;2023-05-17T11:38:16;21.80;31.40
27266;DHT22;14766;51.380;13.762;2023-05-17T11:40:45;21.80;31.20
27266;DHT22;14766;51.380;13.762;2023-05-17T11:43:18;21.90;31.40
27266;DHT22;14766;51.380;13.762;2023-05-17T11:45:47;21.90;31.50
27266;DHT22;14766;51.380;13.762;2023-05-17T11:48:20;21.90;31.30
27266;DHT22;14766;51.380;13.762;2023-05-17T11:50:51;21.90;30.70
27266;DHT22;14766;51.380;13.762;2023-05-17T11:53:20;21.90;30.50
27266;DHT22;14766;51.380;13.762;2023-05-17T11:55:49;22.00;30.70
27266;DHT22;14766;51.380;13.762;2023-05-17T11:58:18;22.00;30.60
27266;DHT22;14766;51.380;13.762;2023-05-17T12:00:52;22.00;31.70
27266;DHT22;14766;51.380;13.762;2023-05-17T12:03:21;21.90;31.00
27266;DHT22;14766;51.380;13.762;2023-05-17T12:05:51;22.00;30.50
27266;DHT22;14766;51.380;13.762;2023-05-17T12:08:27;22.00;30.00
27266;DHT22;14766;51.380;13.762;2023-05-17T12:10:54;22.10;30.00
27266;DHT22;14766;51.380;13.762;2023-05-17T12:13:23;22.10;29.90
27266;DHT22;14766;51.380;13.762;2023-05-17T12:16:01;22.10;30.10
27266;DHT22;14766;51.380;13.762;2023-05-17T12:18:36;22.20;29.50
27266;DHT22;14766;51.380;13.762;2023-05-17T12:21:05;22.20;29.80
27266;DHT22;14766;51.380;13.762;2023-05-17T12:23:37;22.20;29.50
27266;DHT22;14766;51.380;13.762;2023-05-17T12:26:07;22.20;29.50
27266;DHT22;14766;51.380;13.762;2023-05-17T12:28:39;22.10;29.30
27266;DHT22;14766;51.380;13.762;2023-05-17T12:31:16;22.10;29.00
27266;DHT22;14766;51.380;13.762;2023-05-17T12:33:44;22.00;29.10
27266;DHT22;14766;51.380;13.762;2023-05-17T12:36:14;22.00;28.90
27266;DHT22;14766;51.380;13.762;2023-05-17T12:38:43;22.00;28.90
27266;DHT22;14766;51.380;13.762;2023-05-17T12:41:11;21.90;28.80
27266;DHT22;14766;51.380;13.762;2023-05-17T12:43:39;22.00;28.30
27266;DHT22;14766;51.380;13.762;2023-05-17T12:46:14;21.90;27.70
27266;DHT22;14766;51.380;13.762;2023-05-17T12:48:44;22.00;28.00
27266;DHT22;14766;51.380;13.762;2023-05-17T12:51:15;22.00;28.30
27266;DHT22;14766;51.380;13.762;2023-05-17T12:53:47;22.10;28.30
27266;DHT22;14766;51.380;13.762;2023-05-17T12:59:11;22.10;28.10
27266;DHT22;14766;51.380;13.762;2023-05-17T13:04:08;22.10;28.40
27266;DHT22;14766;51.380;13.762;2023-05-17T13:09:19;22.20;28.40
27266;DHT22;14766;51.380;13.762;2023-05-17T13:11:55;22.20;28.20
27266;DHT22;14766;51.380;13.762;2023-05-17T13:14:52;22.20;27.20
27266;DHT22;14766;51.380;13.762;2023-05-17T13:17:24;22.20;26.90
27266;DHT22;14766;51.380;13.762;2023-05-17T13:19:53;22.20;26.70
27266;DHT22;14766;51.380;13.762;2023-05-17T13:22:24;22.20;25.80
27266;DHT22;14766;51.380;13.762;2023-05-17T13:24:52;22.20;25.90
27266;DHT22;14766;51.380;13.762;2023-05-17T13:27:19;22.20;25.80
27266;DHT22;14766;51.380;13.762;2023-05-17T13:29:46;22.20;25.90
27266;DHT22;14766;51.380;13.762;2023-05-17T13:32:13;22.20;26.30
27266;DHT22;14766;51.380;13.762;2023-05-17T13:34:40;22.20;26.20
27266;DHT22;14766;51.380;13.762;2023-05-17T13:37:08;22.20;26.40
27266;DHT22;14766;51.380;13.762;2023-05-17T13:39:39;22.30;26.70
27266;DHT22;14766;51.380;13.762;2023-05-17T13:42:07;22.30;26.60
27266;DHT22;14766;51.380;13.762;2023-05-17T13:44:34;22.30;26.70
27266;DHT22;14766;51.380;13.762;2023-05-17T13:47:01;22.30;26.90
27266;DHT22;14766;51.380;13.762;2023-05-17T13:49:31;22.30;26.80
27266;DHT22;14766;51.380;13.762;2023-05-17T13:51:59;22.30;26.60
27266;DHT22;14766;51.380;13.762;2023-05-17T13:54:26;22.30;26.50
27266;DHT22;14766;51.380;13.762;2023-05-17T13:56:54;22.30;26.50
27266;DHT22;14766;51.380;13.762;2023-05-17T13:59:23;22.30;26.10
27266;DHT22;14766;51.380;13.762;2023-05-17T14:01:51;22.30;26.20
27266;DHT22;14766;51.380;13.762;2023-05-17T14:04:18;22.30;26.30
27266;DHT22;14766;51.380;13.762;2023-05-17T14:06:48;22.20;26.40
27266;DHT22;14766;51.380;13.762;2023-05-17T14:09:19;22.20;26.40
27266;DHT22;14766;51.380;13.762;2023-05-17T14:11:47;22.20;26.40
27266;DHT22;14766;51.380;13.762;2023-05-17T14:14:15;22.20;26.60
27266;DHT22;14766;51.380;13.762;2023-05-17T14:16:42;22.20;26.60
27266;DHT22;14766;51.380;13.762;2023-05-17T14:19:09;22.20;26.40
27266;DHT22;14766;51.380;13.762;2023-05-17T14:21:37;22.20;26.30
27266;DHT22;14766;51.380;13.762;2023-05-17T14:24:04;22.20;26.20
27266;DHT22;14766;51.380;13.762;2023-05-17T14:26:31;22.20;26.60
27266;DHT22;14766;51.380;13.762;2023-05-17T14:28:58;22.20;26.70
27266;DHT22;14766;51.380;13.762;2023-05-17T14:31:26;22.20;26.80
27266;DHT22;14766;51.380;13.762;2023-05-17T14:33:55;22.20;27.00
27266;DHT22;14766;51.380;13.762;2023-05-17T14:36:24;22.20;26.80
27266;DHT22;14766;51.380;13.762;2023-05-17T14:38:52;22.10;26.80
27266;DHT22;14766;51.380;13.762;2023-05-17T14:41:20;22.10;26.50
27266;DHT22;14766;51.380;13.762;2023-05-17T14:43:49;22.10;26.80
27266;DHT22;14766;51.380;13.762;2023-05-17T14:46:17;22.10;26.50
27266;DHT22;14766;51.380;13.762;2023-05-17T14:48:45;22.10;26.50
27266;DHT22;14766;51.380;13.762;2023-05-17T14:51:12;22.10;26.50
27266;DHT22;14766;51.380;13.762;2023-05-17T14:53:40;22.10;26.60
27266;DHT22;14766;51.380;13.762;2023-05-17T14:56:08;22.10;26.60
27266;DHT22;14766;51.380;13.762;2023-05-17T14:58:35;22.10;26.60
27266;DHT22;14766;51.380;13.762;2023-05-17T15:01:03;22.10;26.60
27266;DHT22;14766;51.380;13.762;2023-05-17T15:03:33;22.00;26.50
27266;DHT22;14766;51.380;13.762;2023-05-17T15:06:01;22.00;26.30
27266;DHT22;14766;51.380;13.762;2023-05-17T15:08:34;22.00;26.50
27266;DHT22;14766;51.380;13.762;2023-05-17T15:11:01;22.00;26.30
27266;DHT22;14766;51.380;13.762;2023-05-17T15:13:28;22.00;26.40
27266;DHT22;14766;51.380;13.762;2023-05-17T15:15:57;21.90;26.30
27266;DHT22;14766;51.380;13.762;2023-05-17T15:18:24;21.90;26.40
27266;DHT22;14766;51.380;13.762;2023-05-17T15:20:51;21.90;26.20
27266;DHT22;14766;51.380;13.762;2023-05-17T15:23:18;21.90;26.00
27266;DHT22;14766;51.380;13.762;2023-05-17T15:25:45;21.80;25.90
27266;DHT22;14766;51.380;13.762;2023-05-17T15:28:13;21.80;25.50
27266;DHT22;14766;51.380;13.762;2023-05-17T15:30:40;21.80;25.50
27266;DHT22;14766;51.380;13.762;2023-05-17T15:33:08;21.70;25.50
27266;DHT22;14766;51.380;13.762;2023-05-17T15:35:38;21.70;25.80
27266;DHT22;14766;51.380;13.762;2023-05-17T15:38:05;21.60;26.00
27266;DHT22;14766;51.380;13.762;2023-05-17T15:40:33;21.60;26.00
27266;DHT22;14766;51.380;13.762;2023-05-17T15:43:01;21.60;26.20
27266;DHT22;14766;51.380;13.762;2023-05-17T15:45:28;21.50;26.00
27266;DHT22;14766;51.380;13.762;2023-05-17T15:47:57;21.50;25.70
27266;DHT22;14766;51.380;13.762;2023-05-17T15:50:28;21.40;25.80
27266;DHT22;14766;51.380;13.762;2023-05-17T15:52:55;21.50;26.10
27266;DHT22;14766;51.380;13.762;2023-05-17T15:55:22;21.40;26.20
27266;DHT22;14766;51.380;13.762;2023-05-17T15:57:50;21.40;26.50
27266;DHT22;14766;51.380;13.762;2023-05-17T16:00:18;21.40;26.50
27266;DHT22;14766;51.380;13.762;2023-05-17T16:02:45;21.40;26.50